Time;durP1;ratioP1;P1;durP2;ratioP2;P2;SDS_P1;SDS_P2;PMS_P1;PMS_P2;Temp;Humidity;BMP_temperature;BMP_pressure;BME280_temperature;BME280_humidity;BME280_pressure;Samples;Min_cycle;Max_cycle;Signal;HPM_P1;HPM_P2
2023/03/26 00:01:16;;;;;;;9.40;2.67;;;15.50;84.40;;;;;;4141945;28;20491;-69
2023/03/26 00:03:59;;;;;;;9.07;2.42;;;15.50;84.40;;;;;;4158267;28;20060;-68
2023/03/26 00:06:40;;;;;;;10.48;2.72;;;15.50;84.60;;;;;;4159193;28;20048;-69
2023/03/26 00:09:21;;;;;;;13.02;3.28;;;15.50;84.70;;;;;;4127865;28;20049;-68
2023/03/26 00:12:03;;;;;;;;;;;15.50;84.90;;;;;;4126620;28;20181;-70
2023/03/26 00:14:44;;;;;;;10.13;2.25;;;15.50;85.00;;;;;;4126672;28;19948;-71
2023/03/26 00:17:24;;;;;;;10.30;3.08;;;15.50;85.70;;;;;;4128034;28;20054;-71
2023/03/26 00:20:08;;;;;;;14.10;2.30;;;15.50;85.60;;;;;;4129704;28;20504;-71
2023/03/26 00:22:50;;;;;;;14.48;2.72;;;15.50;85.30;;;;;;4128270;28;20062;-71
2023/03/26 00:25:32;;;;;;;13.05;2.78;;;15.40;85.10;;;;;;4128719;28;20060;-71
2023/03/26 00:28:16;;;;;;;10.57;2.30;;;15.40;85.20;;;;;;4132390;28;20404;-71
2023/03/26 00:31:01;;;;;;;19.88;3.25;;;15.40;85.30;;;;;;4142695;28;20451;-71
2023/03/26 00:33:42;;;;;;;10.93;2.38;;;15.40;85.00;;;;;;4141580;28;20057;-72
2023/03/26 00:36:25;;;;;;;11.07;2.50;;;15.40;84.70;;;;;;4133699;28;20058;-70
2023/03/26 00:39:08;;;;;;;9.68;2.35;;;15.40;84.80;;;;;;4127082;28;20053;-72
2023/03/26 00:41:53;;;;;;;10.50;2.35;;;15.40;86.10;;;;;;4111811;28;20402;-71
2023/03/26 00:44:34;;;;;;;12.60;2.08;;;15.40;85.10;;;;;;4126463;28;20271;-72
2023/03/26 00:47:15;;;;;;;10.80;2.58;;;15.40;85.20;;;;;;4126675;28;20505;-71
2023/03/26 00:49:57;;;;;;;10.32;2.40;;;15.40;85.10;;;;;;4120022;28;20053;-72
2023/03/26 00:52:39;;;;;;;15.60;2.83;;;15.40;85.20;;;;;;4144971;28;20123;-72
2023/03/26 00:55:20;;;;;;;12.43;2.67;;;15.40;85.20;;;;;;4139147;28;20053;-72
2023/03/26 00:58:01;;;;;;;11.43;2.50;;;15.40;85.30;;;;;;4152964;28;20154;-72
2023/03/26 01:00:47;;;;;;;12.48;2.47;;;15.30;85.00;;;;;;4116813;28;20480;-72
2023/03/26 01:03:29;;;;;;;11.73;2.72;;;15.30;85.10;;;;;;4145568;28;20057;-72
2023/03/26 01:06:14;;;;;;;10.65;2.35;;;15.30;85.40;;;;;;4137242;28;20052;-72
2023/03/26 01:08:59;;;;;;;15.18;3.03;;;15.30;85.30;;;;;;4161558;28;20049;-72
2023/03/26 01:11:40;;;;;;;12.93;2.40;;;15.30;85.20;;;;;;4161830;28;20119;-72
2023/03/26 01:14:25;;;;;;;13.38;2.33;;;15.30;85.10;;;;;;4161315;28;20056;-71
2023/03/26 01:17:07;;;;;;;13.27;2.42;;;15.30;84.70;;;;;;4122954;28;20731;-71
2023/03/26 01:19:52;;;;;;;14.48;2.65;;;15.30;84.90;;;;;;4144561;28;20053;-71
2023/03/26 01:22:36;;;;;;;12.93;2.75;;;15.30;85.10;;;;;;4135793;28;20185;-71
2023/03/26 01:25:19;;;;;;;14.07;2.72;;;15.30;85.30;;;;;;4135793;28;20085;-71
2023/03/26 01:28:02;;;;;;;12.02;2.22;;;15.30;85.10;;;;;;4143613;28;20052;-70
2023/03/26 01:30:49;;;;;;;13.50;2.78;;;15.30;85.00;;;;;;4145169;28;20488;-70
2023/03/26 01:33:37;;;;;;;16.20;3.00;;;15.30;85.00;;;;;;4144931;28;20052;-71
2023/03/26 01:36:25;;;;;;;12.63;2.55;;;15.30;85.20;;;;;;4140007;28;20131;-71
2023/03/26 01:39:17;;;;;;;12.23;2.47;;;15.20;85.00;;;;;;4112892;28;20054;-70
2023/03/26 01:42:07;;;;;;;13.00;2.88;;;15.20;85.00;;;;;;4133695;28;20069;-70
2023/03/26 01:44:55;;;;;;;12.43;2.53;;;15.20;85.10;;;;;;4129843;28;20070;-70
2023/03/26 01:47:37;;;;;;;12.75;2.42;;;15.20;85.20;;;;;;4126344;28;20097;-71
2023/03/26 01:50:19;;;;;;;14.32;2.47;;;15.20;85.20;;;;;;4115118;28;20045;-71
2023/03/26 01:52:59;;;;;;;9.52;2.20;;;15.20;85.10;;;;;;4140934;28;20066;-71
2023/03/26 01:55:52;;;;;;;12.10;2.60;;;15.20;85.30;;;;;;4135486;28;20775;-71
2023/03/26 01:58:41;;;;;;;8.88;2.67;;;15.20;85.90;;;;;;4144442;28;20049;-71
2023/03/26 02:01:28;;;;;;;13.90;2.42;;;15.20;85.10;;;;;;4143466;28;20061;-71
2023/03/26 02:04:18;;;;;;;11.18;1.95;;;15.20;84.90;;;;;;4144362;28;20666;-71
2023/03/26 02:07:04;;;;;;;15.15;2.95;;;15.20;85.00;;;;;;4138510;28;20042;-71
2023/03/26 02:09:51;;;;;;;15.27;3.17;;;15.20;85.10;;;;;;4131979;28;20053;-71
2023/03/26 02:12:33;;;;;;;19.27;3.60;;;15.20;84.90;;;;;;4135515;28;20069;-71
2023/03/26 02:15:16;;;;;;;11.07;2.60;;;15.20;84.80;;;;;;4136769;28;20481;-71
2023/03/26 02:17:58;;;;;;;16.92;2.55;;;15.20;84.90;;;;;;4142932;28;20123;-71
2023/03/26 02:20:40;;;;;;;16.52;3.53;;;15.20;84.90;;;;;;4143186;28;20192;-71
2023/03/26 02:23:21;;;;;;;10.73;2.10;;;15.10;84.60;;;;;;4154462;28;20627;-69
2023/03/26 02:26:05;;;;;;;8.23;2.75;;;15.10;84.60;;;;;;4115834;28;20123;-69
2023/03/26 02:28:48;;;;;;;14.70;2.35;;;15.10;84.70;;;;;;4126969;28;20177;-69
2023/03/26 02:31:30;;;;;;;11.80;2.75;;;15.10;84.70;;;;;;4138407;28;20050;-69
2023/03/26 02:34:11;;;;;;;11.40;2.70;;;15.10;85.00;;;;;;4127392;28;20048;-69
2023/03/26 02:36:58;;;;;;;13.70;2.60;;;15.10;85.10;;;;;;4135800;28;20400;-69
2023/03/26 02:39:39;;;;;;;19.98;3.17;;;15.10;86.70;;;;;;4153837;28;20060;-69
2023/03/26 02:42:27;;;;;;;14.13;2.97;;;15.20;86.20;;;;;;4142907;28;20044;-69
2023/03/26 02:45:08;;;;;;;13.48;2.35;;;15.30;86.10;;;;;;4127311;28;20641;-69
2023/03/26 02:48:17;;;;;;;13.75;2.60;;;15.30;85.80;;;;;;4144597;28;20056;-69
2023/03/26 02:51:01;;;;;;;19.70;3.40;;;15.30;86.50;;;;;;4159309;28;20424;-69
2023/03/26 02:54:08;;;;;;;18.10;2.40;;;15.40;85.30;;;;;;4148762;28;20069;-69
2023/03/26 02:57:05;;;;;;;10.25;2.63;;;15.40;86.20;;;;;;4114810;28;20053;-69
2023/03/26 03:00:14;;;;;;;12.43;2.78;;;15.40;84.60;;;;;;4132148;28;20813;-69
2023/03/26 03:02:58;;;;;;;;;;;15.40;84.40;;;;;;4139947;28;20113;-69
2023/03/26 03:05:46;;;;;;;10.88;2.20;;;15.40;84.80;;;;;;4110608;28;19933;-69
2023/03/26 03:08:46;;;;;;;13.98;3.15;;;15.40;85.90;;;;;;4139464;28;20100;-69
2023/03/26 03:11:30;;;;;;;13.65;3.90;;;15.50;85.80;;;;;;4143502;28;20057;-68
2023/03/26 03:14:11;;;;;;;17.58;2.80;;;15.60;85.30;;;;;;4149860;28;20045;-69
2023/03/26 03:16:52;;;;;;;11.15;2.38;;;15.70;84.90;;;;;;4137426;28;20048;-69
2023/03/26 03:19:36;;;;;;;10.27;2.35;;;15.70;84.70;;;;;;4138870;28;20409;-69
2023/03/26 03:22:19;;;;;;;11.35;2.42;;;15.70;84.40;;;;;;4128016;28;20049;-69
2023/03/26 03:25:03;;;;;;;11.10;2.13;;;15.70;83.90;;;;;;4139303;28;20527;-68
2023/03/26 03:27:44;;;;;;;18.17;2.22;;;15.80;83.90;;;;;;4135217;28;20062;-69
2023/03/26 03:30:26;;;;;;;16.73;3.10;;;15.80;84.00;;;;;;4139652;28;20172;-69
2023/03/26 03:33:21;;;;;;;11.07;2.50;;;15.80;84.00;;;;;;4135582;28;20053;-68
2023/03/26 03:36:09;;;;;;;14.20;2.30;;;15.80;83.80;;;;;;4158861;28;20060;-69
2023/03/26 03:38:52;;;;;;;13.65;2.47;;;15.90;83.80;;;;;;4146170;28;20187;-69
2023/03/26 03:41:34;;;;;;;13.75;2.63;;;15.90;83.60;;;;;;4153168;28;20052;-69
2023/03/26 03:44:18;;;;;;;12.95;2.95;;;15.90;83.60;;;;;;4135872;28;20393;-69
2023/03/26 03:47:00;;;;;;;13.32;2.78;;;15.90;83.50;;;;;;4152477;28;20407;-68
2023/03/26 03:49:40;;;;;;;16.77;3.30;;;15.90;83.40;;;;;;4141951;28;20192;-68
2023/03/26 03:52:22;;;;;;;12.98;2.45;;;15.90;83.30;;;;;;4153451;28;20417;-69
2023/03/26 03:55:05;;;;;;;7.97;2.38;;;15.90;83.30;;;;;;4143112;28;20087;-69
2023/03/26 03:57:59;;;;;;;12.15;2.53;;;15.90;83.10;;;;;;4141520;28;20179;-69
2023/03/26 04:00:43;;;;;;;13.13;3.17;;;15.90;83.30;;;;;;4137039;28;20165;-69
2023/03/26 04:03:44;;;;;;;;;;;15.90;83.20;;;;;;4131794;28;20141;-69
2023/03/26 04:06:29;;;;;;;15.73;2.88;;;15.90;83.50;;;;;;4136568;28;19936;-68
2023/03/26 04:09:10;;;;;;;15.02;3.10;;;15.90;83.70;;;;;;4140002;28;20053;-69
2023/03/26 04:11:53;;;;;;;11.98;2.45;;;15.90;83.40;;;;;;4130101;28;20120;-69
2023/03/26 04:14:52;;;;;;;13.52;2.17;;;15.90;83.30;;;;;;4141368;28;20543;-69
2023/03/26 04:17:41;;;;;;;9.80;2.30;;;15.90;83.60;;;;;;4123485;28;20575;-69
2023/03/26 04:20:25;;;;;;;11.93;2.40;;;16.00;83.40;;;;;;4126813;28;20609;-71
2023/03/26 04:23:12;;;;;;;16.05;2.50;;;16.00;83.10;;;;;;4135256;28;20052;-69
2023/03/26 04:25:56;;;;;;;15.35;2.58;;;16.10;82.80;;;;;;4140954;28;20511;-69
2023/03/26 04:28:53;;;;;;;12.38;3.30;;;16.10;82.60;;;;;;4141457;28;20180;-69
2023/03/26 04:31:39;;;;;;;11.27;2.10;;;16.10;82.50;;;;;;4126186;28;20052;-69
2023/03/26 04:34:24;;;;;;;12.07;2.53;;;16.10;82.60;;;;;;4117568;28;20132;-68
2023/03/26 04:37:25;;;;;;;10.10;2.22;;;16.10;83.30;;;;;;4128191;28;20508;-69
2023/03/26 04:40:20;;;;;;;13.70;2.47;;;16.10;82.30;;;;;;4134486;28;20489;-69
2023/03/26 04:43:16;;;;;;;11.15;2.33;;;16.10;82.20;;;;;;4140422;28;20064;-69
2023/03/26 04:46:34;;;;;;;11.32;2.65;;;16.10;82.20;;;;;;4129860;28;20073;-68
2023/03/26 04:49:23;;;;;;;11.35;2.15;;;16.10;82.30;;;;;;4131433;28;20064;-71
2023/03/26 04:52:04;;;;;;;16.23;2.90;;;16.10;83.10;;;;;;4144364;28;20053;-71
2023/03/26 04:55:05;;;;;;;13.50;2.65;;;16.20;82.20;;;;;;4145416;28;20393;-71
2023/03/26 04:57:53;;;;;;;12.65;2.78;;;16.20;82.00;;;;;;4156010;28;20056;-71
2023/03/26 05:00:54;;;;;;;14.50;2.65;;;16.20;81.80;;;;;;4130322;28;20049;-71
2023/03/26 05:03:37;;;;;;;13.70;2.40;;;16.20;82.00;;;;;;4127878;28;20073;-71
2023/03/26 05:06:21;;;;;;;11.57;2.25;;;16.30;81.70;;;;;;4129370;28;20165;-71
2023/03/26 05:09:02;;;;;;;12.50;2.40;;;16.30;81.60;;;;;;4128205;28;20061;-71
2023/03/26 05:12:04;;;;;;;7.47;2.30;;;16.30;81.60;;;;;;4129404;28;20618;-71
2023/03/26 05:14:55;;;;;;;14.10;2.85;;;16.30;81.60;;;;;;4127867;28;20053;-71
2023/03/26 05:17:50;;;;;;;14.30;2.65;;;16.20;81.60;;;;;;4128170;28;20057;-70
2023/03/26 05:20:43;;;;;;;15.35;2.60;;;16.20;81.50;;;;;;4129298;28;20061;-71
2023/03/26 05:23:24;;;;;;;20.50;3.05;;;16.20;81.50;;;;;;4128275;28;20044;-68
2023/03/26 05:26:23;;;;;;;11.48;2.80;;;16.20;81.70;;;;;;4138986;28;20061;-69
2023/03/26 05:29:04;;;;;;;14.93;2.83;;;16.20;81.60;;;;;;4129845;28;20089;-69
2023/03/26 05:31:48;;;;;;;14.15;3.10;;;16.20;81.20;;;;;;4129430;28;20455;-69
2023/03/26 05:34:29;;;;;;;11.65;2.10;;;16.30;81.10;;;;;;4144687;28;20053;-68
2023/03/26 05:37:12;;;;;;;12.25;2.08;;;16.30;80.70;;;;;;4127037;28;20148;-69
2023/03/26 05:40:10;;;;;;;21.75;3.65;;;16.30;81.00;;;;;;4150081;28;20057;-69
2023/03/26 05:42:58;;;;;;;10.65;2.17;;;16.30;81.10;;;;;;4127182;28;20076;-69
2023/03/26 05:45:47;;;;;;;13.48;2.60;;;16.40;80.70;;;;;;4135360;28;20057;-65
2023/03/26 05:48:38;;;;;;;11.35;2.67;;;16.40;79.90;;;;;;4140442;28;20056;-65
2023/03/26 05:51:19;;;;;;;15.35;3.15;;;16.40;80.10;;;;;;4159596;28;20199;-70
2023/03/26 05:54:11;;;;;;;10.95;2.70;;;16.40;79.50;;;;;;4159979;28;20051;-66
2023/03/26 05:57:11;;;;;;;10.50;2.38;;;16.40;78.80;;;;;;4160976;28;20398;-66
2023/03/26 06:00:12;;;;;;;11.05;2.60;;;16.30;79.20;;;;;;4139551;28;20057;-68
2023/03/26 06:02:59;;;;;;;10.75;2.45;;;16.30;78.90;;;;;;4144697;28;20512;-67
2023/03/26 06:05:59;;;;;;;12.63;3.15;;;16.20;79.80;;;;;;4112215;28;20054;-67
2023/03/26 06:08:53;;;;;;;13.48;2.35;;;16.20;79.20;;;;;;4127921;28;20509;-67
2023/03/26 06:11:43;;;;;;;11.52;3.00;;;16.10;79.30;;;;;;4117028;28;20057;-67
2023/03/26 06:14:24;;;;;;;8.98;1.92;;;16.10;79.30;;;;;;4137784;28;20057;-67
2023/03/26 06:17:29;;;;;;;10.73;2.47;;;16.00;79.40;;;;;;4147045;28;20107;-67
2023/03/26 06:20:36;;;;;;;13.20;2.97;;;15.90;79.50;;;;;;4127597;28;20050;-66
2023/03/26 06:23:23;;;;;;;10.82;2.50;;;15.90;79.70;;;;;;4133485;28;20425;-67
2023/03/26 06:26:31;;;;;;;12.10;2.33;;;15.90;81.20;;;;;;4136500;28;20460;-67
2023/03/26 06:29:24;;;;;;;9.98;2.10;;;15.90;81.30;;;;;;4133190;28;20045;-67
2023/03/26 06:32:24;;;;;;;13.13;2.30;;;16.00;80.80;;;;;;4128030;28;20518;-67
2023/03/26 06:35:10;;;;;;;9.57;2.15;;;16.10;80.90;;;;;;4127450;28;20053;-69
2023/03/26 06:37:51;;;;;;;;;;;16.20;80.40;;;;;;4133072;28;20091;-67
2023/03/26 06:40:33;;;;;;;11.40;2.65;;;16.30;80.50;;;;;;4142556;28;19963;-67
2023/03/26 06:43:32;;;;;;;12.73;2.92;;;16.30;77.10;;;;;;4145186;28;20048;-67
2023/03/26 06:46:26;;;;;;;10.07;2.25;;;16.30;73.30;;;;;;4127501;28;20108;-67
2023/03/26 06:49:26;;;;;;;10.27;2.47;;;16.30;72.10;;;;;;4136825;28;20099;-68
2023/03/26 06:52:39;;;;;;;8.15;2.25;;;16.30;76.70;;;;;;4143459;28;20095;-68
2023/03/26 06:55:46;;;;;;;12.80;2.20;;;16.30;79.00;;;;;;4142505;28;20133;-66
2023/03/26 06:58:51;;;;;;;11.75;2.50;;;16.40;78.60;;;;;;4139881;28;20056;-67
2023/03/26 07:01:45;;;;;;;10.02;2.50;;;16.40;76.60;;;;;;4130680;28;20081;-67
2023/03/26 07:05:01;;;;;;;8.30;2.28;;;16.40;77.80;;;;;;4108771;28;20139;-67
2023/03/26 07:08:01;;;;;;;10.70;2.50;;;16.40;75.80;;;;;;4128563;28;20062;-67
2023/03/26 07:10:42;;;;;;;11.38;2.50;;;16.30;78.50;;;;;;4143561;28;20068;-67
2023/03/26 07:13:41;;;;;;;7.82;2.40;;;16.30;78.10;;;;;;4140692;28;20104;-67
2023/03/26 07:16:41;;;;;;;8.35;1.88;;;16.20;77.70;;;;;;4121747;28;20057;-68
2023/03/26 07:19:37;;;;;;;7.40;2.50;;;16.20;76.20;;;;;;4127610;28;20061;-66
2023/03/26 07:22:22;;;;;;;8.60;2.30;;;16.20;75.20;;;;;;4130743;28;20069;-67
2023/03/26 07:25:14;;;;;;;13.15;2.33;;;16.20;76.70;;;;;;4142137;28;20456;-67
2023/03/26 07:28:07;;;;;;;11.27;2.67;;;16.20;74.90;;;;;;4134754;28;20052;-67
2023/03/26 07:31:17;;;;;;;7.40;2.22;;;16.20;74.50;;;;;;4138998;28;20060;-70
2023/03/26 07:34:26;;;;;;;12.00;2.38;;;16.10;71.90;;;;;;4135048;28;20512;-69
2023/03/26 07:37:37;;;;;;;13.70;2.35;;;16.10;70.90;;;;;;4137824;28;20065;-68
2023/03/26 07:40:46;;;;;;;7.25;2.28;;;16.00;70.70;;;;;;4126643;28;20073;-68
2023/03/26 07:44:12;;;;;;;11.68;2.20;;;16.00;68.70;;;;;;4118604;28;20463;-70
2023/03/26 07:47:24;;;;;;;8.82;2.58;;;15.90;68.10;;;;;;4124463;28;20476;-68
2023/03/26 07:50:25;;;;;;;14.20;2.72;;;15.90;68.70;;;;;;4120465;28;20521;-69
2023/03/26 07:53:38;;;;;;;11.57;2.15;;;15.80;69.30;;;;;;4110685;28;20154;-68
2023/03/26 07:56:50;;;;;;;;;;;15.70;67.50;;;;;;4111245;28;20511;-69
2023/03/26 07:59:56;;;;;;;14.48;2.47;;;15.80;67.20;;;;;;4110106;28;19972;-69
2023/03/26 08:03:17;;;;;;;11.93;2.28;;;15.60;67.80;;;;;;4112524;28;20214;-69
2023/03/26 08:06:21;;;;;;;13.60;2.20;;;15.60;63.30;;;;;;4127842;28;20049;-69
2023/03/26 08:09:31;;;;;;;8.02;2.17;;;15.50;63.10;;;;;;4147896;28;20411;-68
2023/03/26 08:12:37;;;;;;;9.05;2.05;;;15.50;63.60;;;;;;4124433;28;20401;-69
2023/03/26 08:15:28;;;;;;;9.77;2.03;;;15.40;61.50;;;;;;4129372;28;20056;-69
2023/03/26 08:18:26;;;;;;;10.73;1.52;;;15.40;62.90;;;;;;4133177;28;20124;-66
2023/03/26 08:21:15;;;;;;;14.02;2.38;;;15.40;59.70;;;;;;4140313;28;20127;-67
2023/03/26 08:24:05;;;;;;;9.73;2.42;;;15.40;59.60;;;;;;4134486;28;20447;-70
2023/03/26 08:26:56;;;;;;;11.65;2.40;;;15.30;58.20;;;;;;4125117;28;20053;-70
2023/03/26 08:29:43;;;;;;;8.40;2.30;;;15.30;58.20;;;;;;4127901;28;20096;-69
2023/03/26 08:32:25;;;;;;;8.90;2.10;;;15.30;57.30;;;;;;4145741;28;20113;-69
2023/03/26 08:35:08;;;;;;;8.65;2.47;;;15.30;60.10;;;;;;4144670;28;20049;-69
2023/03/26 08:37:50;;;;;;;8.75;2.15;;;15.40;64.90;;;;;;4134334;28;20454;-75
2023/03/26 08:41:13;;;;;;;9.63;2.15;;;15.70;61.80;;;;;;4128915;28;20656;-72
2023/03/26 08:44:27;;;;;;;10.80;2.28;;;16.20;66.70;;;;;;4109816;28;20049;-71
2023/03/26 08:47:49;;;;;;;10.00;2.60;;;16.70;62.80;;;;;;4128754;28;20192;-71
2023/03/26 08:51:26;;;;;;;8.82;2.50;;;17.40;58.80;;;;;;4126885;28;20065;-70
2023/03/26 08:54:37;;;;;;;8.20;2.65;;;17.80;56.80;;;;;;4075991;29;20054;-69
2023/03/26 08:57:53;;;;;;;9.20;2.37;;;18.20;56.80;;;;;;4119751;28;20149;-69
2023/03/26 09:00:46;;;;;;;10.98;2.17;;;18.40;58.50;;;;;;4109641;28;20280;-68
2023/03/26 09:04:06;;;;;;;11.95;2.60;;;18.60;53.10;;;;;;4138154;28;20069;-67
2023/03/26 09:07:16;;;;;;;15.65;2.50;;;18.60;53.20;;;;;;4122079;28;20056;-67
2023/03/26 09:10:38;;;;;;;9.23;2.40;;;18.60;54.00;;;;;;4141152;28;20191;-69
2023/03/26 09:13:49;;;;;;;5.43;1.95;;;18.60;52.90;;;;;;4140958;28;20157;-68
2023/03/26 09:17:14;;;;;;;9.90;2.33;;;18.60;52.60;;;;;;4142785;28;20377;-68
2023/03/26 09:20:25;;;;;;;7.03;2.03;;;18.60;52.90;;;;;;4112453;28;20060;-68
2023/03/26 09:23:43;;;;;;;6.38;2.05;;;18.60;54.60;;;;;;4112467;28;20057;-68
2023/03/26 09:26:29;;;;;;;7.95;2.13;;;18.60;51.90;;;;;;4135736;28;20532;-68
2023/03/26 09:29:42;;;;;;;10.48;2.35;;;18.50;51.50;;;;;;4128874;28;20053;-68
2023/03/26 09:33:17;;;;;;;6.93;2.30;;;18.50;54.50;;;;;;4128590;28;20401;-68
2023/03/26 09:36:31;;;;;;;9.25;2.40;;;18.40;52.90;;;;;;4112533;28;20057;-70
2023/03/26 09:39:23;;;;;;;8.43;2.17;;;18.30;53.30;;;;;;4128497;28;20045;-69
2023/03/26 09:42:12;;;;;;;7.28;2.17;;;18.30;52.60;;;;;;4120464;28;20509;-69
2023/03/26 09:45:22;;;;;;;14.07;2.80;;;18.20;52.60;;;;;;4132329;28;20057;-69
2023/03/26 09:48:28;;;;;;;10.45;2.28;;;18.20;52.90;;;;;;4123966;28;20639;-69
2023/03/26 09:51:32;;;;;;;8.20;2.00;;;18.10;52.80;;;;;;4136337;28;20505;-69
2023/03/26 09:54:43;;;;;;;8.88;1.83;;;18.10;53.10;;;;;;4129543;28;20076;-67
2023/03/26 09:57:44;;;;;;;9.70;2.33;;;18.00;54.70;;;;;;4138564;28;20099;-68
2023/03/26 10:00:40;;;;;;;7.90;1.88;;;17.90;53.20;;;;;;4132238;28;20498;-69
2023/03/26 10:03:33;;;;;;;9.85;2.30;;;17.90;52.80;;;;;;4131668;28;20057;-69
2023/03/26 10:06:26;;;;;;;9.95;2.33;;;18.00;52.80;;;;;;4135091;28;20052;-68
2023/03/26 10:09:20;;;;;;;12.00;2.20;;;18.10;51.70;;;;;;4144084;28;20053;-69
2023/03/26 10:12:15;;;;;;;9.38;2.22;;;18.30;52.10;;;;;;4154524;28;20088;-68
2023/03/26 10:15:08;;;;;;;9.38;2.55;;;18.30;51.20;;;;;;4133449;28;20137;-69
2023/03/26 10:18:00;;;;;;;11.73;2.80;;;18.40;52.40;;;;;;4154185;28;20504;-71
2023/03/26 10:20:59;;;;;;;8.05;2.63;;;18.40;50.80;;;;;;4143060;28;20066;-70
2023/03/26 10:24:04;;;;;;;9.75;1.90;;;18.40;50.40;;;;;;4141661;28;24873;-70
2023/03/26 10:27:08;;;;;;;10.52;2.00;;;18.40;50.40;;;;;;4124517;28;20128;-70
2023/03/26 10:30:25;;;;;;;13.18;1.80;;;18.40;51.30;;;;;;4127241;28;20398;-69
2023/03/26 10:33:14;;;;;;;8.25;2.30;;;18.40;50.80;;;;;;4139660;28;20148;-70
2023/03/26 10:36:12;;;;;;;12.30;2.67;;;18.30;50.40;;;;;;4135455;28;20213;-71
2023/03/26 10:39:19;;;;;;;8.32;2.40;;;18.30;50.60;;;;;;4125838;28;20053;-70
2023/03/26 10:42:39;;;;;;;8.15;2.00;;;18.30;50.90;;;;;;4157427;28;20075;-70
2023/03/26 10:45:51;;;;;;;10.40;2.25;;;18.40;49.90;;;;;;4148063;28;20068;-70
2023/03/26 10:48:46;;;;;;;7.78;2.00;;;18.40;50.60;;;;;;4126125;28;20120;-71
2023/03/26 10:51:49;;;;;;;9.57;2.28;;;18.40;51.00;;;;;;4126128;28;20509;-72
2023/03/26 10:54:39;;;;;;;8.70;2.30;;;18.40;51.20;;;;;;4141339;28;21063;-71
2023/03/26 10:57:34;;;;;;;9.52;2.72;;;18.40;50.40;;;;;;4142304;28;20575;-70
2023/03/26 11:00:23;;;;;;;13.77;2.75;;;18.40;50.40;;;;;;4142192;28;20056;-70
2023/03/26 11:03:43;;;;;;;9.48;2.63;;;18.40;50.50;;;;;;4141214;28;20044;-69
2023/03/26 11:06:32;;;;;;;7.00;2.55;;;18.30;51.30;;;;;;4142339;28;20100;-67
2023/03/26 11:09:28;;;;;;;7.68;2.10;;;18.30;50.90;;;;;;4142016;28;20057;-66
2023/03/26 11:12:19;;;;;;;9.50;2.47;;;18.20;52.20;;;;;;4141810;28;20053;-68
2023/03/26 11:15:19;;;;;;;10.75;2.42;;;18.10;53.20;;;;;;4141746;28;20096;-70
2023/03/26 11:18:12;;;;;;;6.53;1.92;;;18.00;52.50;;;;;;4141908;28;20626;-65
2023/03/26 11:21:01;;;;;;;9.80;2.67;;;17.90;52.70;;;;;;4141611;28;20079;-66
2023/03/26 11:24:13;;;;;;;7.97;1.40;;;17.80;52.00;;;;;;4141836;28;20123;-65
2023/03/26 11:26:57;;;;;;;6.63;1.70;;;17.90;51.60;;;;;;4141709;28;20415;-65
2023/03/26 11:30:03;;;;;;;8.38;2.20;;;18.00;51.50;;;;;;4134099;28;20502;-70
2023/03/26 11:32:51;;;;;;;7.20;1.98;;;18.10;52.10;;;;;;4141718;28;20185;-69
2023/03/26 11:35:36;;;;;;;7.68;2.30;;;18.20;50.70;;;;;;4142906;28;20179;-71
2023/03/26 11:38:25;;;;;;;6.90;1.40;;;18.20;50.10;;;;;;4156818;28;20111;-70
2023/03/26 11:41:12;;;;;;;9.52;2.30;;;18.30;48.90;;;;;;4157978;28;20044;-69
2023/03/26 11:44:15;;;;;;;13.07;2.30;;;18.40;50.60;;;;;;4155794;28;20052;-69
2023/03/26 11:47:02;;;;;;;9.88;2.03;;;18.40;50.60;;;;;;4153556;28;20044;-69
2023/03/26 11:49:45;;;;;;;7.13;1.80;;;18.40;48.70;;;;;;4158354;28;20496;-69
2023/03/26 11:52:26;;;;;;;9.13;2.42;;;18.40;49.60;;;;;;4158382;28;20061;-69
2023/03/26 11:55:11;;;;;;;8.20;2.05;;;18.30;49.70;;;;;;4158370;28;20130;-69
2023/03/26 11:57:55;;;;;;;7.85;2.05;;;18.30;49.60;;;;;;4158282;28;20049;-68
2023/03/26 12:00:39;;;;;;;7.35;1.70;;;18.30;50.20;;;;;;4158351;28;20183;-68
2023/03/26 12:03:23;;;;;;;8.75;1.77;;;18.20;52.30;;;;;;4157758;28;20123;-64
2023/03/26 12:06:04;;;;;;;9.52;2.15;;;18.20;51.50;;;;;;4157482;28;20136;-66
2023/03/26 12:08:46;;;;;;;8.70;2.47;;;18.10;50.50;;;;;;4158018;28;20056;-68
2023/03/26 12:11:33;;;;;;;9.65;2.22;;;18.10;51.60;;;;;;4156632;28;20053;-69
2023/03/26 12:14:18;;;;;;;6.75;1.83;;;18.10;50.70;;;;;;4157602;28;20496;-69
2023/03/26 12:17:06;;;;;;;7.05;1.90;;;18.20;50.20;;;;;;4156602;28;20123;-70
2023/03/26 12:19:47;;;;;;;6.93;1.83;;;18.20;49.80;;;;;;4157582;28;20127;-69
2023/03/26 12:22:32;;;;;;;7.05;2.20;;;18.20;49.90;;;;;;4157897;28;20576;-69
2023/03/26 12:25:17;;;;;;;9.75;2.40;;;18.20;51.00;;;;;;4157972;28;20051;-69
2023/03/26 12:28:01;;;;;;;9.02;1.90;;;18.20;50.30;;;;;;4157861;28;20052;-64
2023/03/26 12:30:52;;;;;;;6.85;2.05;;;18.30;49.70;;;;;;4132071;28;20104;-69
2023/03/26 12:33:37;;;;;;;;;;;18.30;49.70;;;;;;4125814;28;20173;-68
2023/03/26 12:36:25;;;;;;;5.60;1.98;;;18.20;49.70;;;;;;4125452;28;19929;-67
2023/03/26 12:39:30;;;;;;;9.70;2.40;;;18.10;49.70;;;;;;4141310;28;20057;-68
2023/03/26 12:42:33;;;;;;;7.00;1.55;;;18.00;50.30;;;;;;4126019;28;20053;-69
2023/03/26 12:45:39;;;;;;;5.82;1.52;;;18.00;49.30;;;;;;4139678;28;20553;-70
2023/03/26 12:48:24;;;;;;;4.97;1.80;;;17.90;49.40;;;;;;4127686;28;20049;-71
2023/03/26 12:51:15;;;;;;;5.82;2.08;;;17.80;51.00;;;;;;4125069;28;20499;-71
2023/03/26 12:54:22;;;;;;;9.60;2.45;;;17.70;51.20;;;;;;4144259;28;20131;-71
2023/03/26 12:57:19;;;;;;;5.60;1.85;;;17.60;51.30;;;;;;4144398;28;20600;-70
2023/03/26 13:00:20;;;;;;;5.70;2.15;;;17.50;51.70;;;;;;4120302;28;20610;-69
2023/03/26 13:03:22;;;;;;;11.20;1.88;;;17.40;51.80;;;;;;4139381;28;20056;-69
2023/03/26 13:06:22;;;;;;;9.15;1.65;;;17.40;49.80;;;;;;4127843;28;20499;-72
2023/03/26 13:09:21;;;;;;;6.90;1.90;;;17.50;49.00;;;;;;4127857;28;20045;-71
2023/03/26 13:12:14;;;;;;;6.32;1.40;;;17.60;48.00;;;;;;4144114;28;20480;-72
2023/03/26 13:15:22;;;;;;;7.57;2.08;;;17.70;48.20;;;;;;4142716;28;20200;-73
2023/03/26 13:18:15;;;;;;;4.72;1.60;;;17.70;48.30;;;;;;4144212;28;20073;-72
2023/03/26 13:21:02;;;;;;;13.48;1.85;;;17.70;47.60;;;;;;4127859;28;20053;-71
2023/03/26 13:23:54;;;;;;;7.50;1.90;;;17.70;47.90;;;;;;4134987;28;20692;-70
2023/03/26 13:26:50;;;;;;;7.45;2.03;;;17.70;48.50;;;;;;4130716;28;20140;-71
2023/03/26 13:29:40;;;;;;;6.47;1.85;;;17.50;47.40;;;;;;4138567;28;20065;-72
2023/03/26 13:32:29;;;;;;;8.02;1.52;;;17.50;48.70;;;;;;4137525;28;20057;-72
2023/03/26 13:35:23;;;;;;;5.60;1.85;;;17.60;48.40;;;;;;4138498;28;20052;-74
2023/03/26 13:38:11;;;;;;;10.13;2.42;;;17.50;47.90;;;;;;4127604;28;20069;-69
2023/03/26 13:41:04;;;;;;;9.20;1.80;;;17.50;48.40;;;;;;4127895;28;20525;-71
2023/03/26 13:43:56;;;;;;;7.13;1.80;;;17.50;48.70;;;;;;4129729;28;20053;-71
2023/03/26 13:46:42;;;;;;;7.15;1.98;;;17.40;47.60;;;;;;4154559;28;20120;-68
2023/03/26 13:49:35;;;;;;;4.97;1.45;;;17.40;48.40;;;;;;4155706;28;20133;-68
2023/03/26 13:52:24;;;;;;;7.90;1.88;;;17.30;49.50;;;;;;4143290;28;20167;-67
2023/03/26 13:55:19;;;;;;;11.15;2.10;;;17.30;49.40;;;;;;4127408;28;20144;-68
2023/03/26 13:58:06;;;;;;;8.13;2.15;;;17.20;50.00;;;;;;4142227;28;20056;-73
2023/03/26 14:00:54;;;;;;;5.85;1.30;;;17.20;49.50;;;;;;4134146;28;20099;-66
2023/03/26 14:03:49;;;;;;;9.98;2.10;;;17.10;48.90;;;;;;4110973;28;20495;-64
2023/03/26 14:06:42;;;;;;;8.18;1.63;;;17.00;48.40;;;;;;4111172;28;20181;-68
2023/03/26 14:09:27;;;;;;;4.00;1.80;;;17.00;48.70;;;;;;4111109;28;20057;-69
2023/03/26 14:12:29;;;;;;;7.78;1.73;;;17.00;49.70;;;;;;4111355;28;20054;-69
2023/03/26 14:15:17;;;;;;;8.27;2.00;;;17.00;48.90;;;;;;4111793;28;20135;-69
2023/03/26 14:18:05;;;;;;;9.02;1.58;;;17.00;49.10;;;;;;4123473;28;20061;-71
2023/03/26 14:21:16;;;;;;;7.22;1.40;;;17.10;48.30;;;;;;4140266;28;20060;-71
2023/03/26 14:24:28;;;;;;;6.82;1.80;;;17.10;49.10;;;;;;4127155;28;20687;-68
2023/03/26 14:27:28;;;;;;;8.50;2.08;;;17.20;49.10;;;;;;4138752;28;20080;-71
2023/03/26 14:30:38;;;;;;;8.73;2.38;;;17.20;49.40;;;;;;4131926;28;20249;-73
2023/03/26 14:33:37;;;;;;;7.53;2.20;;;17.20;49.50;;;;;;4127740;28;20437;-68
2023/03/26 14:36:34;;;;;;;7.13;2.08;;;17.10;48.40;;;;;;4131710;28;20049;-69
2023/03/26 14:39:39;;;;;;;8.52;1.60;;;17.10;48.00;;;;;;4123617;28;20115;-70
2023/03/26 14:42:29;;;;;;;8.25;1.73;;;17.10;48.30;;;;;;4131879;28;20177;-67
2023/03/26 14:46:02;;;;;;;6.55;1.63;;;17.10;48.90;;;;;;4134572;28;20052;-71
2023/03/26 14:49:22;;;;;;;8.20;2.10;;;17.10;48.90;;;;;;4115610;28;20080;-69
2023/03/26 14:52:09;;;;;;;10.45;2.05;;;17.10;49.80;;;;;;4121527;28;20219;-70
2023/03/26 14:54:53;;;;;;;9.65;1.90;;;17.10;49.80;;;;;;4158631;28;20098;-71
2023/03/26 14:58:02;;;;;;;8.15;1.75;;;17.00;49.00;;;;;;4158889;28;20056;-71